Time;durP1;ratioP1;P1;durP2;ratioP2;P2;SDS_P1;SDS_P2;PMS_P1;PMS_P2;Temp;Humidity;BMP_temperature;BMP_pressure;BME280_temperature;BME280_humidity;BME280_pressure;Samples;Min_cycle;Max_cycle;Signal;HPM_P1;HPM_P2
2022/12/22 03:26:29;;;;;;;;;6.67;1.67;;;;;13.02;81.66;100279.75;4973469;28;45364;-49
2022/12/22 03:28:54;;;;;;;;;3.33;1.00;;;;;13.08;81.37;100292.38;4973473;28;45248;-47
2022/12/22 03:31:20;;;;;;;;;2.00;1.00;;;;;13.13;81.49;100306.03;4973300;28;45423;-53
2022/12/22 03:33:45;;;;;;;;;5.67;2.33;;;;;13.13;81.40;100314.03;4973034;28;46201;-47
2022/12/22 03:36:10;;;;;;;;;4.00;1.00;;;;;13.08;81.61;100307.56;4973061;28;45238;-52
2022/12/22 03:38:36;;;;;;;;;3.00;2.33;;;;;13.08;81.66;100307.56;4973478;28;45405;-47
2022/12/22 03:41:01;;;;;;;;;6.00;2.00;;;;;13.11;81.46;100316.06;4973322;28;45210;-55
2022/12/22 03:46:30;;;;;;;;;7.00;1.00;;;;;13.09;81.35;100326.06;5073388;28;45374;-46
2022/12/22 03:49:11;;;;;;;;;2.00;1.00;;;;;13.08;80.92;100328.94;5073479;28;45391;-48
2022/12/22 03:51:39;;;;;;;;;2.33;2.00;;;;;13.07;80.90;100320.09;5076737;28;45355;-58
2022/12/22 03:54:05;;;;;;;;;10.00;2.00;;;;;13.10;80.62;100318.91;5076738;28;46186;-50
2022/12/22 03:56:30;;;;;;;;;0.33;0.00;;;;;12.98;80.60;100297.09;5076605;28;45424;-53
2022/12/22 03:58:56;;;;;;;;;4.00;1.00;;;;;13.08;80.17;100313.75;5077085;28;45468;-47
2022/12/22 04:01:22;;;;;;;;;5.00;2.00;;;;;13.09;79.74;100342.09;5077099;28;45271;-50
2022/12/22 04:03:48;;;;;;;;;1.00;1.00;;;;;13.10;79.97;100321.56;5076701;28;46324;-50
2022/12/22 04:06:14;;;;;;;;;3.67;1.00;;;;;13.10;80.11;100321.56;5076722;28;45422;-49
2022/12/22 04:08:40;;;;;;;;;3.00;3.00;;;;;13.08;79.58;100321.75;5076676;28;45450;-48
2022/12/22 04:13:49;;;;;;;;;3.33;1.67;;;;;13.01;80.10;100315.44;5076674;28;45381;-52
2022/12/22 04:16:14;;;;;;;;;3.00;1.67;;;;;13.00;80.18;100327.13;5076633;28;45240;-48
2022/12/22 04:18:39;;;;;;;;;3.67;1.00;;;;;12.96;80.27;100328.47;5076633;28;45354;-53
2022/12/22 04:21:04;;;;;;;;;1.67;1.00;;;;;12.95;80.01;100330.31;5076700;28;45372;-50
2022/12/22 04:23:30;;;;;;;;;3.00;1.33;;;;;12.95;79.89;100341.00;4994894;28;47009;-50
2022/12/22 04:25:55;;;;;;;;;1.67;1.33;;;;;12.94;80.28;100367.88;4975956;28;45340;-51
2022/12/22 04:28:20;;;;;;;;;2.00;1.00;;;;;12.92;79.92;100357.34;4976980;28;45381;-48
2022/12/22 04:30:49;;;;;;;;;0.33;0.33;;;;;12.89;79.23;100357.72;4975839;28;45406;-55
2022/12/22 04:33:14;;;;;;;;;3.00;2.00;;;;;12.93;79.22;100385.69;4976673;28;46218;-48
2022/12/22 04:35:40;;;;;;;;;6.00;1.00;;;;;12.95;79.67;100386.38;4975323;28;45394;-47
2022/12/22 04:38:05;;;;;;;;;1.00;1.00;;;;;12.91;79.38;100376.22;4975735;28;45419;-56
2022/12/22 04:40:30;;;;;;;;;1.00;1.00;;;;;12.96;79.46;100397.88;4975610;28;45463;-55
2022/12/22 04:42:56;;;;;;;;;2.67;1.00;;;;;12.97;79.14;100396.88;4975311;28;53570;-51
2022/12/22 04:45:21;;;;;;;;;1.67;0.67;;;;;12.95;79.00;100414.91;4975545;28;46121;-58
2022/12/22 04:47:46;;;;;;;;;2.67;1.00;;;;;12.96;78.98;100413.91;4975479;28;45434;-51
2022/12/22 04:50:12;;;;;;;;;1.00;0.00;;;;;12.96;78.01;100422.75;4975649;28;45316;-61
2022/12/22 04:52:37;;;;;;;;;7.33;1.00;;;;;12.94;78.52;100430.09;4975198;28;49389;-57
2022/12/22 04:55:03;;;;;;;;;2.33;2.00;;;;;12.99;78.32;100432.25;4975470;28;45216;-61
2022/12/22 04:57:28;;;;;;;;;2.00;0.00;;;;;12.98;78.85;100434.09;4975474;27;45234;-61
2022/12/22 04:59:54;;;;;;;;;0.67;0.67;;;;;13.00;78.51;100444.59;4975762;28;45230;-47
2022/12/22 05:02:20;;;;;;;;;0.00;0.00;;;;;12.97;78.05;100452.94;4972925;28;46320;-52
2022/12/22 05:04:45;;;;;;;;;1.00;0.00;;;;;13.01;77.84;100461.44;4975340;28;45536;-54
2022/12/22 05:07:10;;;;;;;;;0.00;0.00;;;;;13.00;78.14;100468.63;4975366;28;45413;-49
2022/12/22 05:09:36;;;;;;;;;0.00;0.00;;;;;13.01;77.63;100482.81;4975656;28;45290;-55
2022/12/22 05:12:53;;;;;;;;;0.00;0.00;;;;;13.01;77.20;100485.47;4975296;28;45434;-46
2022/12/22 05:14:46;;;;;;;;;0.33;0.00;;;;;12.99;77.40;100497.19;4975084;28;45417;-60
2022/12/22 05:17:11;;;;;;;;;2.33;0.00;;;;;12.99;77.70;100486.50;4975000;28;47208;-56
2022/12/22 05:19:37;;;;;;;;;0.00;0.00;;;;;12.99;77.06;100504.34;4975644;28;45400;-47
2022/12/22 05:22:02;;;;;;;;;0.00;0.00;;;;;12.98;77.22;100497.34;4976040;28;55396;-59
2022/12/22 05:24:27;;;;;;;;;0.00;0.00;;;;;12.95;76.98;100501.19;4974917;28;49671;-48
2022/12/22 05:26:53;;;;;;;;;0.00;0.00;;;;;12.95;77.09;100501.19;4975497;28;45357;-51
2022/12/22 05:29:18;;;;;;;;;1.00;0.00;;;;;12.96;76.97;100510.84;4975495;28;45653;-48
2022/12/22 05:31:43;;;;;;;;;2.00;0.00;;;;;12.94;76.46;100498.69;4976231;27;51360;-50
2022/12/22 05:34:08;;;;;;;;;2.67;0.00;;;;;12.90;76.87;100521.38;4975183;28;46174;-46
2022/12/22 05:36:34;;;;;;;;;0.00;0.00;;;;;12.91;76.26;100528.38;4974809;28;48858;-44
2022/12/22 05:38:59;;;;;;;;;0.00;0.00;;;;;12.89;76.51;100531.22;4975169;28;45386;-49
2022/12/22 05:41:24;;;;;;;;;0.00;0.00;;;;;12.89;76.49;100525.03;4974712;28;49723;-49
2022/12/22 05:43:50;;;;;;;;;1.67;1.00;;;;;12.90;76.33;100537.41;4974712;28;54084;-45
2022/12/22 05:46:15;;;;;;;;;1.00;0.00;;;;;12.90;76.81;100532.06;4974627;28;45478;-46
2022/12/22 05:48:40;;;;;;;;;0.00;0.00;;;;;12.90;76.43;100542.75;4974715;28;45383;-48
2022/12/22 05:51:07;;;;;;;;;0.00;0.00;;;;;12.90;76.56;100553.44;4974846;28;45458;-48
2022/12/22 05:53:33;;;;;;;;;0.67;0.00;;;;;12.90;76.48;100556.09;4974780;28;45331;-58
2022/12/22 05:55:58;;;;;;;;;0.00;0.00;;;;;12.90;76.43;100554.25;4974773;28;45425;-48
2022/12/22 05:58:24;;;;;;;;;0.00;0.00;;;;;12.92;76.12;100565.59;4976026;28;45289;-49
2022/12/22 06:00:49;;;;;;;;;2.33;0.00;;;;;12.92;76.42;100560.25;4975244;28;46278;-49
2022/12/22 06:03:14;;;;;;;;;0.00;0.00;;;;;12.92;77.48;100570.09;4975675;28;45248;-49
2022/12/22 06:05:40;;;;;;;;;0.00;0.00;;;;;12.91;77.75;100576.44;4976741;28;45284;-50
2022/12/22 06:08:05;;;;;;;;;0.00;0.00;;;;;12.79;78.25;100561.75;4975712;28;45212;-47
2022/12/22 06:10:31;;;;;;;;;1.00;0.00;;;;;12.89;78.97;100581.09;4974566;28;46112;-45
2022/12/22 06:12:56;;;;;;;;;1.00;0.00;;;;;12.86;79.71;100602.81;4975446;28;45419;-51
2022/12/22 06:15:21;;;;;;;;;1.00;0.00;;;;;12.81;80.57;100589.97;4974855;28;45336;-46
2022/12/22 06:17:47;;;;;;;;;0.00;0.00;;;;;12.80;80.88;100598.09;4974612;28;45432;-51
2022/12/22 06:20:13;;;;;;;;;0.00;0.00;;;;;12.74;81.60;100592.44;4975596;28;46843;-50
2022/12/22 06:22:38;;;;;;;;;1.00;1.00;;;;;12.71;81.12;100599.94;4974325;28;45354;-51
2022/12/22 06:25:04;;;;;;;;;0.33;0.00;;;;;12.60;82.42;100590.41;4974444;28;45655;-50
2022/12/22 06:27:29;;;;;;;;;0.00;0.00;;;;;12.65;82.79;100604.09;4974751;28;45384;-50
2022/12/22 06:29:55;;;;;;;;;0.00;0.00;;;;;12.60;82.82;100606.44;4975084;28;53814;-48
2022/12/22 06:32:20;;;;;;;;;0.00;0.00;;;;;12.61;83.67;100610.75;4974229;28;49032;-49
2022/12/22 06:34:45;;;;;;;;;0.00;0.00;;;;;12.59;83.71;100607.41;4974326;28;45609;-48
2022/12/22 06:37:11;;;;;;;;;0.00;0.00;;;;;12.59;83.83;100615.41;4974660;28;45478;-49
2022/12/22 06:39:36;;;;;;;;;0.00;0.00;;;;;12.59;84.24;100620.75;4974695;28;45243;-48
2022/12/22 06:44:46;;;;;;;;;0.33;0.00;;;;;12.58;84.70;100651.09;4974279;28;45423;-47
2022/12/22 06:47:11;;;;;;;;;0.33;0.00;;;;;12.52;84.35;100643.75;4973777;28;45469;-49
2022/12/22 06:49:36;;;;;;;;;2.00;0.00;;;;;12.53;83.88;100652.59;4973776;28;46115;-47
2022/12/22 06:52:07;;;;;;;;;2.00;1.00;;;;;12.49;83.72;100652.09;4973711;28;45335;-48
2022/12/22 06:54:32;;;;;;;;;2.00;1.00;;;;;12.47;83.90;100648.72;4974236;28;45298;-46
2022/12/22 06:56:57;;;;;;;;;0.33;0.33;;;;;12.47;84.37;100657.59;4974064;28;45386;-49
2022/12/22 06:59:23;;;;;;;;;3.00;0.00;;;;;12.46;84.60;100655.91;4973847;28;47185;-52
2022/12/22 07:01:48;;;;;;;;;4.00;2.33;;;;;12.47;84.33;100664.72;4974014;28;45371;-49
2022/12/22 07:04:18;;;;;;;;;1.00;1.00;;;;;12.47;83.64;100667.41;4973676;28;50358;-47
2022/12/22 07:06:44;;;;;;;;;3.67;1.33;;;;;12.43;83.64;100658.91;4973988;28;45896;-46
2022/12/22 07:09:09;;;;;;;;;3.00;0.67;;;;;12.45;84.03;100667.56;4973567;28;46166;-47
2022/12/22 07:11:34;;;;;;;;;3.33;2.00;;;;;12.47;83.79;100667.41;4973488;28;45344;-49
2022/12/22 07:14:00;;;;;;;;;3.33;1.00;;;;;12.46;84.10;100671.06;4973520;28;45377;-51
2022/12/22 07:16:25;;;;;;;;;4.67;2.00;;;;;12.48;84.06;100675.25;4973130;28;47258;-50
2022/12/22 07:18:50;;;;;;;;;7.33;3.67;;;;;12.43;84.01;100669.59;4973410;28;46075;-46
2022/12/22 07:21:16;;;;;;;;;2.67;2.67;;;;;12.47;84.23;100686.94;4973429;28;45971;-52
2022/12/22 07:23:41;;;;;;;;;8.00;3.00;;;;;12.48;84.23;100695.78;4973314;28;46052;-47
2022/12/22 07:26:07;;;;;;;;;8.00;1.67;;;;;12.48;84.07;100690.44;4975507;28;45433;-47
2022/12/22 07:28:35;;;;;;;;;4.00;4.00;;;;;12.49;84.66;100692.09;4976272;28;45410;-48
2022/12/22 07:31:01;;;;;;;;;3.33;2.67;;;;;12.46;84.70;100687.09;4976153;28;45232;-48
2022/12/22 07:33:27;;;;;;;;;7.00;4.00;;;;;12.15;84.21;100647.59;4976357;28;45276;-48
2022/12/22 07:36:09;;;;;;;;;4.00;4.00;;;;;12.48;84.13;100691.28;4976521;28;45204;-49
2022/12/22 07:38:36;;;;;;;;;12.00;6.00;;;;;12.49;83.79;100694.78;4976317;28;46309;-54
2022/12/22 07:41:03;;;;;;;;;12.67;4.00;;;;;12.48;83.63;100711.78;4976169;28;45383;-47
2022/12/22 07:43:28;;;;;;;;;7.00;4.00;;;;;12.51;83.89;100710.59;4976233;28;45377;-49
2022/12/22 07:45:53;;;;;;;;;8.67;5.33;;;;;12.50;83.12;100707.13;4976635;28;45483;-49
2022/12/22 07:51:05;;;;;;;;;11.33;7.00;;;;;12.49;83.17;100714.28;4976354;28;45275;-46
2022/12/22 07:53:32;;;;;;;;;13.00;4.00;;;;;12.48;83.10;100712.63;4976132;28;45334;-58
2022/12/22 07:56:01;;;;;;;;;13.00;9.00;;;;;12.47;83.10;100710.09;4976208;28;45294;-49
2022/12/22 07:58:27;;;;;;;;;9.00;6.67;;;;;12.50;82.88;100709.78;4975814;28;47026;-49
2022/12/22 08:00:59;;;;;;;;;15.00;3.33;;;;;12.48;82.54;100709.94;4976144;28;45245;-47
2022/12/22 08:03:25;;;;;;;;;13.33;5.67;;;;;12.52;82.56;100713.13;4975937;28;45339;-51
2022/12/22 08:05:50;;;;;;;;;9.33;6.33;;;;;12.53;82.11;100714.81;4976242;28;45402;-49
2022/12/22 08:08:15;;;;;;;;;9.67;6.00;;;;;12.27;82.37;100682.84;4976129;28;46092;-57
2022/12/22 08:10:41;;;;;;;;;6.67;6.67;;;;;12.54;81.94;100721.81;4975773;28;49780;-49
2022/12/22 08:13:06;;;;;;;;;7.00;3.67;;;;;12.51;81.70;100715.94;4976305;28;45234;-60
2022/12/22 08:15:31;;;;;;;;;12.67;5.67;;;;;12.56;81.52;100725.16;4976182;28;45239;-51
2022/12/22 08:17:57;;;;;;;;;10.67;7.00;;;;;12.57;81.65;100732.16;4975735;28;45952;-46
2022/12/22 08:20:22;;;;;;;;;13.33;6.67;;;;;12.57;81.76;100731.34;4976227;28;45243;-48
2022/12/22 08:22:47;;;;;;;;;11.00;4.67;;;;;12.59;81.54;100742.66;4975917;28;45421;-54
2022/12/22 08:25:13;;;;;;;;;11.67;6.33;;;;;12.59;80.73;100746.16;4976317;28;45254;-51
2022/12/22 08:27:45;;;;;;;;;11.00;7.00;;;;;12.59;81.52;100738.16;4975699;28;47037;-52
2022/12/22 08:30:11;;;;;;;;;13.67;7.00;;;;;12.60;80.69;100747.88;4975797;28;45379;-51
2022/12/22 08:32:38;;;;;;;;;17.67;7.33;;;;;12.62;81.04;100748.53;4975699;28;45322;-50
2022/12/22 08:35:05;;;;;;;;;8.00;2.67;;;;;12.62;80.76;100751.19;4975719;28;45840;-47
2022/12/22 08:37:39;;;;;;;;;9.67;7.67;;;;;12.63;80.51;100754.69;4975520;28;47386;-54
2022/12/22 08:40:11;;;;;;;;;12.33;5.33;;;;;12.63;80.49;100752.88;4975626;28;45314;-48
2022/12/22 08:42:38;;;;;;;;;12.33;7.00;;;;;12.63;80.16;100750.19;4975714;28;45262;-55
2022/12/22 08:45:04;;;;;;;;;17.33;7.33;;;;;12.55;80.05;100731.47;4975644;28;45544;-56
2022/12/22 08:47:30;;;;;;;;;15.33;9.33;;;;;12.66;80.10;100741.03;4975275;28;46465;-48
2022/12/22 08:49:55;;;;;;;;;20.67;11.00;;;;;12.67;79.88;100735.53;4975305;28;45821;-48
2022/12/22 08:52:20;;;;;;;;;15.33;8.00;;;;;12.66;79.48;100738.38;4977369;28;45333;-59
2022/12/22 08:54:46;;;;;;;;;11.33;9.00;;;;;12.66;79.91;100731.19;4975834;28;45630;-55
2022/12/22 08:57:11;;;;;;;;;17.00;9.00;;;;;12.65;79.59;100723.38;4975277;28;46034;-59
2022/12/22 08:59:37;;;;;;;;;17.33;8.00;;;;;12.61;79.05;100717.50;4975575;28;45424;-49
2022/12/22 09:02:05;;;;;;;;;7.67;7.00;;;;;12.73;79.67;100740.25;4975230;28;45442;-57
2022/12/22 09:04:32;;;;;;;;;10.33;3.00;;;;;12.76;79.06;100731.06;4975634;28;45456;-46
2022/12/22 09:06:57;;;;;;;;;19.00;11.00;;;;;12.79;79.10;100738.75;4973783;28;46986;-55
2022/12/22 09:09:23;;;;;;;;;7.33;5.67;;;;;12.82;79.36;100740.28;4975165;28;45303;-54
2022/12/22 09:11:49;;;;;;;;;12.00;7.00;;;;;12.86;79.12;100739.78;4975490;28;45396;-53
2022/12/22 09:14:14;;;;;;;;;13.00;5.67;;;;;12.88;79.04;100739.63;4975564;28;45457;-53
2022/12/22 09:16:40;;;;;;;;;20.67;7.00;;;;;12.93;79.00;100739.97;4974676;28;46844;-51
2022/12/22 09:19:06;;;;;;;;;13.00;7.67;;;;;12.91;78.33;100725.97;4976668;28;45301;-53
2022/12/22 09:21:33;;;;;;;;;17.00;9.00;;;;;13.06;78.31;100743.03;4975013;28;45465;-50
2022/12/22 09:23:58;;;;;;;;;15.33;9.00;;;;;12.99;78.38;100725.97;4975351;28;45358;-59
2022/12/22 09:26:26;;;;;;;;;14.00;8.33;;;;;13.09;78.18;100742.69;4973597;28;47932;-53
2022/12/22 09:28:51;;;;;;;;;17.33;8.67;;;;;13.10;78.25;100736.34;4975309;28;45291;-55
2022/12/22 09:31:22;;;;;;;;;12.00;5.00;;;;;13.25;77.67;100741.09;4974018;28;45219;-46
2022/12/22 09:33:48;;;;;;;;;12.00;7.00;;;;;13.34;77.14;100740.09;4975206;28;45311;-50
2022/12/22 09:36:17;;;;;;;;;14.33;7.00;;;;;13.38;76.96;100739.59;4974803;28;47137;-56
2022/12/22 09:38:42;;;;;;;;;18.33;9.67;;;;;13.52;76.83;100742.63;4974856;28;45331;-60
2022/12/22 09:41:13;;;;;;;;;14.00;7.33;;;;;13.56;76.48;100739.44;4974904;28;45413;-51
2022/12/22 09:43:39;;;;;;;;;18.33;10.00;;;;;13.60;76.40;100740.78;4975185;28;45257;-51
2022/12/22 09:46:21;;;;;;;;;10.00;7.00;;;;;13.65;76.68;100751.84;4974814;28;46427;-57
2022/12/22 09:48:47;;;;;;;;;20.00;8.00;;;;;13.67;76.21;100749.81;4973964;28;45632;-49
2022/12/22 09:51:14;;;;;;;;;14.33;5.00;;;;;13.80;76.08;100753.84;4975077;28;45334;-58
2022/12/22 09:53:41;;;;;;;;;19.67;8.67;;;;;13.86;75.83;100761.19;4974970;28;45869;-60
2022/12/22 09:56:13;;;;;;;;;17.67;8.33;;;;;13.87;75.68;100763.69;4974554;28;46677;-49
2022/12/22 09:58:38;;;;;;;;;12.67;8.33;;;;;13.84;75.85;100763.19;4974745;28;45342;-54
2022/12/22 10:01:04;;;;;;;;;14.00;8.00;;;;;13.76;75.64;100766.69;4974945;28;45377;-51
2022/12/22 10:03:53;;;;;;;;;14.67;10.67;;;;;13.70;76.06;100765.53;4974632;28;45426;-49
2022/12/22 10:06:54;;;;;;;;;23.67;8.67;;;;;13.66;76.45;100750.84;4974564;28;45472;-53
2022/12/22 10:09:25;;;;;;;;;13.00;6.00;;;;;13.64;76.33;100752.81;4974418;28;45279;-47
2022/12/22 10:11:54;;;;;;;;;17.33;9.33;;;;;13.55;76.31;100731.59;4974833;28;45342;-55
2022/12/22 10:14:24;;;;;;;;;21.00;9.00;;;;;13.58;76.38;100734.78;4976284;28;45564;-46
2022/12/22 10:17:15;;;;;;;;;19.67;9.00;;;;;13.57;76.43;100756.31;4974304;28;46129;-60
2022/12/22 10:19:41;;;;;;;;;16.00;9.67;;;;;13.55;76.30;100745.81;4972874;28;45429;-58
2022/12/22 10:22:24;;;;;;;;;14.67;7.33;;;;;13.54;76.38;100752.16;4974329;28;45303;-46
2022/12/22 10:24:49;;;;;;;;;20.33;10.00;;;;;13.56;76.43;100752.81;4974817;28;45589;-50
2022/12/22 10:27:16;;;;;;;;;16.67;9.00;;;;;13.55;76.28;100747.66;4974201;28;45644;-48
2022/12/22 10:29:41;;;;;;;;;10.67;5.00;;;;;13.56;76.33;100752.81;4974360;28;45196;-61
2022/12/22 10:32:13;;;;;;;;;16.33;9.00;;;;;13.58;76.85;100752.66;4974391;28;45308;-52
2022/12/22 10:35:03;;;;;;;;;14.67;7.00;;;;;13.61;76.07;100753.19;4974534;28;45549;-48
2022/12/22 10:37:35;;;;;;;;;14.33;6.67;;;;;13.66;76.16;100752.69;4974171;28;46230;-47
2022/12/22 10:40:17;;;;;;;;;13.33;7.00;;;;;13.58;75.85;100744.66;4974019;28;45418;-56
2022/12/22 10:42:54;;;;;;;;;12.00;8.00;;;;;13.65;75.75;100735.81;4974077;28;45330;-50
2022/12/22 10:45:26;;;;;;;;;14.33;8.00;;;;;13.72;75.67;100743.97;4974435;28;45543;-49
2022/12/22 10:47:54;;;;;;;;;9.33;7.33;;;;;13.75;75.29;100754.34;4973653;28;45318;-55
2022/12/22 10:50:21;;;;;;;;;9.67;6.33;;;;;13.78;75.76;100754.03;4974110;28;45397;-48
2022/12/22 10:52:55;;;;;;;;;17.67;8.67;;;;;13.79;75.62;100747.66;4974116;28;45309;-48
2022/12/22 10:55:28;;;;;;;;;9.33;5.67;;;;;13.79;75.15;100736.13;4974133;28;45569;-47
2022/12/22 10:58:18;;;;;;;;;14.33;11.33;;;;;13.76;75.49;100737.28;4973664;28;46086;-47
2022/12/22 11:00:58;;;;;;;;;16.00;9.67;;;;;13.77;75.49;100732.78;4975186;28;45472;-60
2022/12/22 11:03:29;;;;;;;;;19.00;8.67;;;;;13.67;75.51;100736.47;4976928;28;45451;-47
2022/12/22 11:05:56;;;;;;;;;15.33;6.33;;;;;13.71;75.25;100736.97;4976931;28;45479;-46
2022/12/22 11:08:23;;;;;;;;;9.67;7.00;;;;;13.76;75.46;100750.66;4976423;28;46179;-53
2022/12/22 11:11:36;;;;;;;;;14.33;7.33;;;;;13.76;75.93;100741.81;4976476;28;45379;-47
2022/12/22 11:14:16;;;;;;;;;10.00;4.67;;;;;13.74;75.38;100744.66;4954865;28;45361;-48
2022/12/22 11:16:49;;;;;;;;;13.00;6.67;;;;;13.69;75.57;100734.47;4954902;28;45378;-48
2022/12/22 11:19:17;;;;;;;;;14.67;7.33;;;;;13.76;75.16;100737.28;4954673;28;45578;-48
2022/12/22 11:21:56;;;;;;;;;13.00;8.00;;;;;13.65;74.91;100719.75;4954795;28;45516;-48
2022/12/22 11:24:48;;;;;;;;;16.67;6.00;;;;;13.75;75.01;100730.28;4955148;28;45276;-46
2022/12/22 11:27:19;;;;;;;;;14.33;7.00;;;;;13.74;75.03;100725.94;4955126;28;45579;-45
2022/12/22 11:29:54;;;;;;;;;17.00;7.00;;;;;13.73;75.01;100724.25;4954347;28;46054;-47
2022/12/22 11:32:30;;;;;;;;;23.00;9.00;;;;;13.69;75.32;100721.09;4954570;28;45520;-51
2022/12/22 11:35:25;;;;;;;;;15.00;7.33;;;;;13.72;75.63;100722.59;4954601;28;45426;-51
2022/12/22 11:37:57;;;;;;;;;18.00;9.00;;;;;13.71;75.33;100729.78;4954840;28;45429;-48
2022/12/22 11:40:48;;;;;;;;;16.00;7.00;;;;;13.70;75.21;100720.09;4954577;28;46207;-48
2022/12/22 11:43:31;;;;;;;;;14.33;6.67;;;;;13.71;75.34;100731.63;4954284;28;45464;-48
2022/12/22 11:46:11;;;;;;;;;16.00;10.00;;;;;13.71;75.42;100723.59;4977009;28;45370;-52
2022/12/22 11:48:45;;;;;;;;;14.00;8.67;;;;;13.71;75.46;100726.28;4976580;28;45470;-53
2022/12/22 11:51:31;;;;;;;;;16.00;8.00;;;;;13.71;75.17;100720.91;4976100;28;45419;-54
2022/12/22 11:54:36;;;;;;;;;15.67;8.33;;;;;13.71;74.88;100716.41;4976378;28;45339;-56
2022/12/22 11:57:14;;;;;;;;;14.33;9.00;;;;;13.72;75.15;100709.22;4976283;28;45332;-48
2022/12/22 12:00:01;;;;;;;;;12.00;9.67;;;;;13.73;75.47;100710.88;4976655;28;45287;-47
2022/12/22 12:02:26;;;;;;;;;9.67;5.00;;;;;13.75;75.25;100689.34;4976582;28;46194;-54
2022/12/22 12:05:21;;;;;;;;;19.33;8.33;;;;;13.77;75.33;100692.66;4977436;28;45466;-49
2022/12/22 12:07:55;;;;;;;;;16.33;9.00;;;;;13.70;75.39;100684.50;4976035;28;45335;-50
2022/12/22 12:10:33;;;;;;;;;15.00;9.00;;;;;13.76;75.32;100686.50;4975927;28;45494;-50
2022/12/22 12:13:25;;;;;;;;;14.00;3.67;;;;;13.77;75.29;100692.66;4976002;28;47193;-49
2022/12/22 12:16:21;;;;;;;;;11.33;7.67;;;;;13.75;75.38;100692.84;4975803;28;45428;-48
2022/12/22 12:19:14;;;;;;;;;18.33;9.67;;;;;13.76;75.22;100681.16;4975883;28;45512;-48
2022/12/22 12:21:42;;;;;;;;;15.67;7.00;;;;;13.76;75.43;100677.63;4975926;28;45317;-48
2022/12/22 12:24:20;;;;;;;;;10.00;5.00;;;;;13.75;75.41;100678.66;4975869;28;45295;-51
2022/12/22 12:26:59;;;;;;;;;12.00;8.33;;;;;13.62;75.20;100658.63;4975845;28;45314;-48
2022/12/22 12:29:27;;;;;;;;;12.00;7.00;;;;;13.73;75.21;100671.63;4975763;28;45370;-49
2022/12/22 12:32:08;;;;;;;;;12.67;7.33;;;;;13.74;75.57;100672.47;4975926;28;45393;-49
2022/12/22 12:34:37;;;;;;;;;16.67;7.33;;;;;13.70;75.24;100660.44;4976629;28;45401;-57
2022/12/22 12:37:11;;;;;;;;;17.00;9.00;;;;;13.58;75.65;100633.22;4975576;28;45493;-48
2022/12/22 12:39:54;;;;;;;;;17.00;8.00;;;;;13.66;75.50;100657.28;4975784;28;45342;-53
2022/12/22 12:42:39;;;;;;;;;17.00;8.00;;;;;13.66;75.55;100651.09;4975990;28;45411;-46
2022/12/22 12:45:34;;;;;;;;;13.33;6.67;;;;;13.65;75.93;100655.63;4975391;28;47037;-45
2022/12/22 12:48:20;;;;;;;;;20.00;8.67;;;;;13.65;75.82;100636.91;4975213;28;45265;-46
2022/12/22 12:50:50;;;;;;;;;12.33;7.00;;;;;13.64;75.67;100639.72;4975866;28;45350;-54
2022/12/22 12:53:17;;;;;;;;;18.67;9.33;;;;;13.65;75.88;100633.38;4975614;28;45361;-46
2022/12/22 12:55:48;;;;;;;;;11.33;8.00;;;;;13.62;75.96;100636.41;4975181;28;46220;-50
2022/12/22 12:58:34;;;;;;;;;12.00;7.00;;;;;13.60;76.18;100628.53;4976575;28;45230;-54
2022/12/22 13:01:00;;;;;;;;;10.00;6.67;;;;;13.60;76.21;100623.19;4975367;28;45260;-48
2022/12/22 13:03:28;;;;;;;;;7.67;4.33;;;;;13.61;76.20;100622.19;4975320;28;45242;-49
2022/12/22 13:05:56;;;;;;;;;12.67;6.67;;;;;13.60;76.23;100617.00;4975452;28;46570;-49
2022/12/22 13:08:29;;;;;;;;;16.67;8.00;;;;;13.58;77.37;100617.19;4975252;28;45411;-54
2022/12/22 13:10:55;;;;;;;;;11.67;6.00;;;;;13.56;77.31;100608.50;4976621;28;45349;-53
2022/12/22 13:13:20;;;;;;;;;12.67;8.67;;;;;13.58;77.86;100613.69;4975589;28;45390;-56
2022/12/22 13:15:47;;;;;;;;;15.33;8.33;;;;;13.51;78.32;100599.31;4974919;28;45983;-54
2022/12/22 13:18:24;;;;;;;;;11.67;7.00;;;;;13.56;78.22;100595.13;4975396;28;45260;-49
2022/12/22 13:20:57;;;;;;;;;19.33;12.33;;;;;13.53;78.48;100600.84;4975314;28;45319;-49
2022/12/22 13:23:27;;;;;;;;;9.33;6.67;;;;;13.49;78.75;100594.16;4974298;28;45309;-46
2022/12/22 13:25:57;;;;;;;;;14.33;5.00;;;;;13.44;78.98;100589.31;4974940;28;46316;-48
2022/12/22 13:28:24;;;;;;;;;9.33;8.33;;;;;13.32;79.22;100577.31;4975075;28;45352;-52
2022/12/22 13:31:00;;;;;;;;;18.00;9.33;;;;;13.32;78.86;100574.63;4975221;28;45527;-52
2022/12/22 13:33:30;;;;;;;;;14.00;8.33;;;;;13.33;80.06;100578.97;4975148;28;45469;-53
2022/12/22 13:35:57;;;;;;;;;15.00;10.00;;;;;13.31;80.50;100586.31;4974564;28;46156;-48
2022/12/22 13:38:33;;;;;;;;;18.00;9.00;;;;;13.29;80.96;100577.63;4974714;28;45395;-54
2022/12/22 13:41:03;;;;;;;;;15.67;8.00;;;;;13.25;81.04;100573.63;4974889;28;45339;-57
2022/12/22 13:43:31;;;;;;;;;17.67;8.00;;;;;13.23;81.06;100567.59;4975184;28;45319;-49
2022/12/22 13:45:59;;;;;;;;;13.67;7.67;;;;;13.18;81.19;100562.75;4974722;28;46982;-48
2022/12/22 13:48:41;;;;;;;;;12.67;6.00;;;;;13.17;80.81;100565.59;4974441;28;45476;-48
2022/12/22 13:51:31;;;;;;;;;12.00;7.67;;;;;13.15;81.50;100562.28;4974822;28;45365;-53
2022/12/22 13:54:01;;;;;;;;;13.00;8.00;;;;;13.15;82.33;100554.25;4975053;28;45232;-51
2022/12/22 13:56:35;;;;;;;;;10.33;7.67;;;;;13.13;81.91;100553.56;4975162;28;45433;-49
2022/12/22 13:59:02;;;;;;;;;13.67;9.33;;;;;13.08;81.60;100554.09;4974973;28;45690;-49
2022/12/22 14:01:28;;;;;;;;;18.67;8.33;;;;;13.11;82.13;100547.59;4975027;28;45318;-47
2022/12/22 14:04:06;;;;;;;;;7.33;4.00;;;;;13.06;82.03;100548.09;4975280;28;45438;-48
2022/12/22 14:06:36;;;;;;;;;9.67;5.67;;;;;13.06;82.65;100550.75;4974953;28;46310;-52
2022/12/22 14:09:22;;;;;;;;;14.33;7.67;;;;;13.03;81.69;100542.25;4974574;28;45434;-50
2022/12/22 14:11:50;;;;;;;;;15.67;6.33;;;;;13.00;83.79;100532.72;4974724;28;45246;-48
2022/12/22 14:14:19;;;;;;;;;8.00;4.00;;;;;12.98;83.46;100538.25;4974750;28;45473;-47
2022/12/22 14:16:48;;;;;;;;;8.67;6.33;;;;;12.96;83.85;100532.22;4974334;28;45338;-50
2022/12/22 14:19:16;;;;;;;;;12.00;8.00;;;;;12.91;84.30;100529.22;4974241;28;45393;-48
2022/12/22 14:21:43;;;;;;;;;11.00;7.00;;;;;12.95;84.03;100530.56;4974673;28;45918;-55
2022/12/22 14:24:18;;;;;;;;;7.67;5.00;;;;;12.93;83.58;100526.38;4974626;28;45545;-54
2022/12/22 14:26:44;;;;;;;;;10.33;8.00;;;;;12.90;84.99;100527.56;4974103;28;46966;-47
2022/12/22 14:29:17;;;;;;;;;15.00;6.00;;;;;12.90;84.60;100521.38;4974195;28;45333;-52
2022/12/22 14:31:58;;;;;;;;;8.00;7.00;;;;;12.89;84.74;100512.56;4974563;28;45450;-59
2022/12/22 14:34:31;;;;;;;;;14.67;8.33;;;;;12.88;84.75;100510.84;4974098;28;45451;-49
2022/12/22 14:36:57;;;;;;;;;10.67;5.33;;;;;12.85;84.97;100521.03;4973970;28;47398;-50
2022/12/22 14:39:31;;;;;;;;;7.67;4.00;;;;;12.84;84.60;100516.69;4974284;28;45154;-51
2022/12/22 14:42:00;;;;;;;;;9.33;7.00;;;;;12.84;85.12;100522.88;4974080;28;45368;-52
2022/12/22 14:44:28;;;;;;;;;17.67;7.33;;;;;12.83;86.12;100507.03;4974399;28;45283;-46
2022/12/22 14:47:10;;;;;;;;;11.00;5.67;;;;;12.83;86.22;100499.03;4974000;28;45457;-49
2022/12/22 14:49:51;;;;;;;;;9.00;4.33;;;;;12.79;85.86;100482.50;4974206;28;45469;-45
2022/12/22 14:52:43;;;;;;;;;14.67;7.00;;;;;12.79;86.39;100477.16;4974185;28;45364;-50
2022/12/22 14:55:24;;;;;;;;;12.67;7.33;;;;;12.74;87.26;100464.31;4974435;28;45430;-50
2022/12/22 14:57:54;;;;;;;;;14.00;9.00;;;;;12.72;87.16;100460.13;4973781;28;46033;-48
2022/12/22 15:00:22;;;;;;;;;7.00;7.00;;;;;12.72;87.73;100458.34;4973858;28;45350;-49
2022/12/22 15:02:51;;;;;;;;;13.67;8.33;;;;;12.70;88.98;100449.66;4973994;28;45241;-47
2022/12/22 15:05:36;;;;;;;;;10.00;6.00;;;;;12.71;87.77;100429.94;4973996;28;45509;-49
2022/12/22 15:08:03;;;;;;;;;7.33;4.67;;;;;12.70;88.00;100428.28;4973589;28;45267;-50
2022/12/22 15:10:37;;;;;;;;;12.33;7.33;;;;;12.60;88.32;100422.31;4973764;28;45372;-50
2022/12/22 15:13:06;;;;;;;;;10.67;8.00;;;;;12.68;88.32;100424.13;4973899;28;45284;-49